Pagrindinis puslapis
METAR-TAF:

METAR-TAF

Oro uostai :

Iljeusas, Bahija, Brazilija

platuma: 14-49S, ilguma: 039-02W, Aukštis: 4 m

Dabartinis oras

Ataskaita buvo paskelbta 54 minutes, ne 09:00 UTC
Ramus vėjas
Temperatūra 24°C
Drėgmė 94%
Slėgis 1014 hPa
Matomumas 10 km arba daugiau
nėra debesų žemiau 1500 m ir nėra kamuolinių lietaus debesų

METAR: SBIL 090900Z 00000KT CAVOK 24/23 Q1014

Laikas: 06:54 (09:54 UTC)

Prognozė

Ataskaita buvo paskelbta 5 valandos ir 54 minutes, ne 04:00 UTC
Prognozė galioja nuo 09 metu 06 UTC su 09 metu 18 UTC
Vėjas 5 kt iš Vakarų
Matomumas 10 km arba daugiau
Išsisklaidę debesys ne aukštis 2000 ft
Mažai debesys ne aukštis 2500 ft, aukštai iškilę kamuoliniai debesys.
Tapsmas
nuo 09 metu 10 UTC su 09 metu 12 UTC
Vėjas 5 kt iš Rytų/Šiaurės Rytų
Išsisklaidę debesys ne aukštis 2500 ft
Tapsmas
nuo 09 metu 14 UTC su 09 metu 16 UTC
Vėjas 8 kt iš Rytų

TAF: SBIL 090400Z 0906/0918 27005KT 9999 SCT020 FEW025TCU TN24/0906Z TX30/0915Z BECMG 0910/0912 07005KT SCT025 BECMG 0914/0916 10008KT RMK PEH

Orai ataskaitas ir orų prognozės (METAR, TAF).

turimą stotys yra geltonos ir raudonos taškus žemėlapyje.

Perkelti pele per norėdami pamatyti stoties vardą.

Tada spustelėkite, norėdami matyti oro stebėjimo ir prognozės.

Norėdami pakeisti žemėlapį: spustelėkite ant žalios mygtukų su juodo kryžiaus žemyn,; žalią mygtuką su brūkšneliu, jei norite nutolinti; arba žalių rodyklių gretimoms žemėlapius.


METAR-TAF: